Time;durP1;ratioP1;P1;durP2;ratioP2;P2;SDS_P1;SDS_P2;PMS_P1;PMS_P2;Temp;Humidity;BMP_temperature;BMP_pressure;BME280_temperature;BME280_humidity;BME280_pressure;Samples;Min_cycle;Max_cycle;Signal;HPM_P1;HPM_P2
2022/04/19 00:00:16;;;;;;;2.95;2.70;;;;;;;7.56;100.00;99844.06;5069208;28;20279;-79
2022/04/19 00:02:43;;;;;;;3.40;3.10;;;;;;;7.60;100.00;99864.78;5070620;28;20214;-80
2022/04/19 00:05:10;;;;;;;3.43;2.83;;;;;;;7.61;100.00;99863.06;5070440;28;20222;-79
2022/04/19 00:07:37;;;;;;;3.93;2.57;;;;;;;7.61;100.00;99858.78;5070441;28;20670;-79
2022/04/19 00:10:06;;;;;;;2.77;2.53;;;;;;;7.46;100.00;99861.00;5069622;28;20288;-80
2022/04/19 00:12:33;;;;;;;3.00;2.80;;;;;;;7.46;100.00;99853.25;5069731;28;20195;-79
2022/04/19 00:15:01;;;;;;;2.80;2.60;;;;;;;7.51;100.00;99853.38;5069837;28;20194;-79
2022/04/19 00:17:28;;;;;;;2.50;2.30;;;;;;;7.49;100.00;99861.94;5069980;28;20226;-80
2022/04/19 00:19:55;;;;;;;3.87;2.87;;;;;;;7.56;100.00;99854.38;5069313;28;20206;-79
2022/04/19 00:22:21;;;;;;;2.73;2.50;;;;;;;7.59;100.00;99849.28;5070005;28;20212;-79
2022/04/19 00:24:49;;;;;;;3.70;2.77;;;;;;;7.56;100.00;99850.09;5070146;28;20201;-80
2022/04/19 00:27:17;;;;;;;3.77;3.03;;;;;;;7.53;100.00;99854.31;5070348;28;20191;-79
2022/04/19 00:29:45;;;;;;;3.57;3.10;;;;;;;7.59;100.00;99844.13;5069953;28;20768;-80
2022/04/19 00:32:12;;;;;;;3.47;2.90;;;;;;;7.66;100.00;99851.16;5070090;28;20198;-78
2022/04/19 00:34:39;;;;;;;3.80;3.40;;;;;;;7.73;100.00;99850.47;5069780;28;20253;-79
2022/04/19 00:37:06;;;;;;;3.60;3.27;;;;;;;7.79;100.00;99853.16;5070284;28;20270;-79
2022/04/19 00:39:33;;;;;;;4.43;3.15;;;;;;;7.63;100.00;99823.59;5069515;28;20199;-78
2022/04/19 00:42:00;;;;;;;3.73;3.37;;;;;;;7.76;100.00;99846.25;5069603;28;20206;-79
2022/04/19 00:44:28;;;;;;;4.35;3.58;;;;;;;7.81;100.00;99841.19;5070187;28;20194;-79
2022/04/19 00:46:55;;;;;;;5.27;3.70;;;;;;;7.83;100.00;99852.41;5069923;28;20214;-78
2022/04/19 00:49:22;;;;;;;12.97;5.17;;;;;;;7.81;100.00;99851.50;5070118;28;20702;-78
2022/04/19 00:51:49;;;;;;;13.03;5.40;;;;;;;7.77;100.00;99845.41;5034429;28;20202;-77
2022/04/19 00:54:18;;;;;;;6.27;5.10;;;;;;;7.82;100.00;99846.38;5070202;28;20206;-79
2022/04/19 00:56:46;;;;;;;9.23;5.40;;;;;;;7.56;100.00;99819.13;5069657;28;20230;-79
2022/04/19 00:59:13;;;;;;;12.20;5.10;;;;;;;7.62;100.00;99836.44;5069653;28;20278;-78
2022/04/19 01:01:41;;;;;;;8.10;5.30;;;;;;;7.68;100.00;99854.63;5070100;28;20207;-78
2022/04/19 01:04:08;;;;;;;6.27;4.00;;;;;;;7.64;100.00;99845.94;5018216;28;20191;-79
2022/04/19 01:06:35;;;;;;;4.93;4.07;;;;;;;7.75;100.00;99846.19;5069883;28;20211;-79
2022/04/19 01:09:02;;;;;;;4.00;3.70;;;;;;;7.66;100.00;99833.97;5070122;28;20207;-78
2022/04/19 01:14:14;;;;;;;6.30;3.05;;;;;;;7.66;100.00;99846.00;5029632;28;20317;-78
2022/04/19 01:16:42;;;;;;;3.40;3.07;;;;;;;7.58;100.00;99826.88;5073809;28;20198;-78
2022/04/19 01:19:15;;;;;;;3.27;3.07;;;;;;;7.77;100.00;99841.97;5073605;28;20199;-79
2022/04/19 01:21:46;;;;;;;3.30;3.00;;;;;;;7.83;100.00;99847.25;5058064;28;20693;-79
2022/04/19 01:24:18;;;;;;;2.83;2.63;;;;;;;7.79;100.00;99842.84;5073371;28;20195;-78
2022/04/19 01:26:45;;;;;;;3.20;2.60;;;;;;;7.73;100.00;99848.75;5073394;28;20201;-79
2022/04/19 01:29:13;;;;;;;2.90;2.70;;;;;;;7.79;100.00;99842.84;5073518;28;20710;-79
2022/04/19 01:31:42;;;;;;;3.13;2.83;;;;;;;7.55;100.00;99811.34;5057822;28;20218;-79
2022/04/19 01:34:09;;;;;;;3.73;2.60;;;;;;;7.69;100.00;99838.31;5073530;28;20227;-80
2022/04/19 01:36:36;;;;;;;2.63;2.43;;;;;;;7.54;100.00;99841.44;5073040;28;20210;-77
2022/04/19 01:39:06;;;;;;;3.53;2.03;;;;;;;7.60;95.50;99846.72;5073141;28;20203;-79
2022/04/19 01:41:33;;;;;;;2.53;2.10;;;;;;;7.60;93.14;99845.88;5073026;28;20662;-78
2022/04/19 01:44:00;;;;;;;2.10;2.00;;;;;;;7.42;87.86;99821.38;5072895;28;20207;-79
2022/04/19 01:46:27;;;;;;;1.70;1.60;;;;;;;7.52;83.44;99847.41;5072930;28;20290;-80
2022/04/19 01:48:55;;;;;;;2.40;1.93;;;;;;;7.65;86.10;99841.66;5072890;28;20234;-79
2022/04/19 01:51:22;;;;;;;2.30;1.80;;;;;;;7.64;85.84;99852.81;5021358;28;20774;-79
2022/04/19 01:53:49;;;;;;;1.80;1.70;;;;;;;7.51;80.52;99836.19;5072635;28;20202;-79
2022/04/19 01:56:18;;;;;;;2.37;2.00;;;;;;;7.51;79.95;99851.69;5072923;28;20320;-78
2022/04/19 01:58:45;;;;;;;3.33;2.50;;;;;;;7.56;77.92;99844.94;5072971;28;20199;-79
2022/04/19 02:01:12;;;;;;;1.70;1.60;;;;;;;7.29;77.43;99845.13;5072271;28;20210;-78
2022/04/19 02:03:39;;;;;;;2.47;2.00;;;;;;;7.44;81.33;99852.38;5073132;28;20214;-79
2022/04/19 02:06:08;;;;;;;2.27;2.10;;;;;;;7.68;80.35;99849.47;5072777;28;20187;-79
2022/04/19 02:08:35;;;;;;;1.87;1.77;;;;;;;7.55;79.36;99831.97;5072829;28;20210;-77
2022/04/19 02:11:02;;;;;;;1.60;1.50;;;;;;;7.79;80.33;99851.47;5072237;28;20233;-79
2022/04/19 02:13:30;;;;;;;2.17;1.50;;;;;;;7.79;81.30;99835.97;5072190;28;20191;-79
2022/04/19 02:15:58;;;;;;;1.63;1.53;;;;;;;7.82;83.37;99843.78;5072065;28;20195;-78
2022/04/19 02:18:25;;;;;;;2.10;1.90;;;;;;;7.82;83.91;99837.75;5072053;28;20191;-79
2022/04/19 02:20:52;;;;;;;2.90;2.70;;;;;;;7.81;83.85;99843.78;5070765;28;20202;-77
2022/04/19 02:23:19;;;;;;;2.97;2.67;;;;;;;7.76;82.05;99829.88;5071410;28;20191;-79
2022/04/19 02:25:47;;;;;;;4.63;3.00;;;;;;;7.79;81.88;99841.13;5072216;28;20195;-77
2022/04/19 02:28:14;;;;;;;2.10;2.00;;;;;;;7.88;81.01;99850.81;5072622;28;20191;-78
2022/04/19 02:30:42;;;;;;;3.23;2.13;;;;;;;7.80;81.58;99823.97;5071738;28;20222;-79
2022/04/19 02:33:09;;;;;;;3.50;2.00;;;;;;;7.96;81.55;99851.81;5072474;28;20199;-77
2022/04/19 02:35:36;;;;;;;1.90;1.70;;;;;;;7.86;82.70;99857.63;5072155;28;20237;-79
2022/04/19 02:38:03;;;;;;;3.20;2.00;;;;;;;7.77;79.39;99841.97;5072247;28;20206;-78
2022/04/19 02:40:30;;;;;;;2.30;2.03;;;;;;;8.01;80.28;99865.72;5033627;28;20630;-78
2022/04/19 02:42:56;;;;;;;5.47;2.50;;;;;;;7.96;80.33;99867.31;5071364;28;20198;-80
2022/04/19 02:45:23;;;;;;;5.73;2.30;;;;;;;7.96;80.99;99860.44;5072886;28;20218;-80
2022/04/19 02:48:03;;;;;;;2.00;1.80;;;;;;;7.85;83.54;99848.13;5073141;28;20190;-80
2022/04/19 02:50:29;;;;;;;1.80;1.70;;;;;;;7.39;91.67;99841.06;5071524;28;20741;-79
2022/04/19 02:52:56;;;;;;;2.40;1.90;;;;;;;7.02;100.00;99865.09;5071359;28;20222;-79
2022/04/19 02:55:23;;;;;;;2.67;1.93;;;;;;;7.00;100.00;99843.53;5071771;28;20214;-79
2022/04/19 02:57:50;;;;;;;4.23;2.53;;;;;;;7.14;100.00;99870.53;5071240;28;20222;-79
2022/04/19 03:00:17;;;;;;;3.57;2.60;;;;;;;7.28;100.00;99869.16;5071126;28;20195;-80
2022/04/19 03:02:44;;;;;;;5.63;3.40;;;;;;;7.17;100.00;99843.97;5070966;28;20202;-78
2022/04/19 03:05:12;;;;;;;3.30;3.00;;;;;;;7.33;100.00;99872.75;5035920;28;20195;-78
2022/04/19 03:07:40;;;;;;;2.83;2.63;;;;;;;7.28;100.00;99858.84;5071667;28;20203;-80
2022/04/19 03:10:07;;;;;;;4.23;3.13;;;;;;;7.44;100.00;99873.88;5071374;28;20564;-80
2022/04/19 03:12:34;;;;;;;6.23;4.70;;;;;;;7.46;100.00;99877.34;5071400;28;20221;-78
2022/04/19 03:15:01;;;;;;;3.43;3.13;;;;;;;7.49;99.62;99885.16;5072679;28;20191;-79
2022/04/19 03:17:28;;;;;;;18.73;8.13;;;;;;;7.58;100.00;99879.34;5072832;28;20203;-79
2022/04/19 03:19:55;;;;;;;3.57;3.27;;;;;;;7.56;100.00;99885.34;5077954;28;20194;-80
2022/04/19 03:22:23;;;;;;;3.80;2.90;;;;;;;7.64;100.00;99888.94;5075717;28;20191;-79
2022/04/19 03:27:43;;;;;;;3.07;2.87;;;;;;;7.98;100.00;99891.47;5071161;28;20206;-78
2022/04/19 03:30:12;;;;;;;2.70;2.50;;;;;;;7.91;100.00;99895.63;5071014;28;20202;-78
2022/04/19 03:32:38;;;;;;;3.63;2.60;;;;;;;7.71;99.37;99875.34;5070480;28;20635;-79
2022/04/19 03:35:06;;;;;;;2.55;2.45;;;;;;;7.85;97.72;99899.75;5071830;28;20673;-80
2022/04/19 03:37:34;;;;;;;2.60;2.40;;;;;;;7.83;99.32;99894.56;5015628;28;20192;-80
2022/04/19 03:40:01;;;;;;;2.37;2.17;;;;;;;7.69;98.52;99882.19;5059150;28;20690;-79
2022/04/19 03:42:28;;;;;;;2.80;2.53;;;;;;;7.78;96.51;99898.75;5070639;28;20218;-79
2022/04/19 03:44:54;;;;;;;20.53;10.83;;;;;;;7.71;97.88;99890.81;5070163;28;20213;-80
2022/04/19 03:47:21;;;;;;;19.83;11.03;;;;;;;7.78;97.04;99905.59;5070388;28;20219;-80
2022/04/19 03:49:48;;;;;;;58.83;32.23;;;;;;;7.72;96.85;99913.22;5070718;28;20195;-79
2022/04/19 03:52:15;;;;;;;14.53;8.47;;;;;;;7.73;98.00;99923.59;5070063;28;20222;-75
2022/04/19 03:54:44;;;;;;;10.70;6.70;;;;;;;7.83;97.56;99919.50;5070325;28;20210;-75
2022/04/19 03:57:11;;;;;;;4.40;4.00;;;;;;;7.81;95.98;99918.63;5070652;28;20279;-75
2022/04/19 03:59:39;;;;;;;6.93;4.97;;;;;;;7.92;96.22;99922.28;5070503;28;20282;-75
2022/04/19 04:02:06;;;;;;;6.63;4.80;;;;;;;7.74;95.68;99888.34;5070179;28;20278;-77
2022/04/19 04:04:35;;;;;;;3.80;3.50;;;;;;;7.82;94.38;99908.31;5070409;28;20612;-78
2022/04/19 04:07:02;;;;;;;3.10;2.90;;;;;;;7.97;95.80;99920.69;5070209;28;20202;-77
2022/04/19 04:09:32;;;;;;;3.85;3.45;;;;;;;7.94;94.55;99898.28;5070648;28;20209;-78
2022/04/19 04:12:01;;;;;;;10.53;7.80;;;;;;;7.87;94.94;99922.19;5069923;28;20230;-77
2022/04/19 04:14:28;;;;;;;7.93;5.33;;;;;;;8.02;98.58;99937.16;5070191;28;20753;-77
2022/04/19 04:16:55;;;;;;;3.67;3.37;;;;;;;8.08;98.74;99939.88;5070149;28;20205;-78
2022/04/19 04:19:22;;;;;;;4.63;3.90;;;;;;;7.96;95.81;99930.16;5069866;28;20207;-78
2022/04/19 04:21:49;;;;;;;3.60;3.30;;;;;;;7.90;95.49;99908.50;5070071;28;20225;-77
2022/04/19 04:24:16;;;;;;;3.80;3.50;;;;;;;8.13;95.03;99945.16;5069790;28;20190;-78
2022/04/19 04:26:43;;;;;;;3.73;3.43;;;;;;;7.97;96.19;99898.34;5034688;28;20194;-76
2022/04/19 04:29:11;;;;;;;4.73;3.10;;;;;;;8.26;95.55;99926.50;5070251;28;20195;-79
2022/04/19 04:31:39;;;;;;;2.77;2.57;;;;;;;8.37;97.91;99954.34;5070015;28;20223;-78
2022/04/19 04:34:06;;;;;;;4.20;2.90;;;;;;;8.46;97.54;99954.53;5030587;28;20305;-78
2022/04/19 04:36:33;;;;;;;3.50;3.00;;;;;;;8.36;94.33;99937.09;5069699;28;20199;-78
2022/04/19 04:39:00;;;;;;;3.00;2.77;;;;;;;8.41;93.76;99953.56;5069733;28;20247;-77
2022/04/19 04:41:26;;;;;;;5.10;2.60;;;;;;;8.41;91.97;99953.56;5069978;28;20263;-78
2022/04/19 04:43:54;;;;;;;4.17;2.83;;;;;;;8.55;92.90;99956.44;5070018;28;20264;-78
2022/04/19 04:51:50;;;;;;;7.50;3.33;;;;;;;8.64;94.47;99964.38;5068107;28;20271;-77
2022/04/19 04:54:17;;;;;;;8.27;5.47;;;;;;;8.38;92.37;99950.06;5073245;28;20226;-78
2022/04/19 04:56:43;;;;;;;4.80;4.07;;;;;;;8.36;90.24;99962.06;5072922;28;20207;-77
2022/04/19 04:59:10;;;;;;;3.77;3.40;;;;;;;8.51;87.02;99970.13;5073165;28;20253;-78
2022/04/19 05:01:38;;;;;;;4.70;4.30;;;;;;;8.64;85.72;99973.84;5073029;28;20207;-79
2022/04/19 05:04:05;;;;;;;4.20;3.70;;;;;;;8.50;87.86;99972.69;5073121;28;20207;-78
2022/04/19 05:06:32;;;;;;;3.88;3.08;;;;;;;8.50;91.12;99957.19;5073748;28;20195;-77
2022/04/19 05:08:59;;;;;;;9.03;4.33;;;;;;;8.76;90.24;99982.72;5073532;28;20294;-78
2022/04/19 05:11:25;;;;;;;6.22;3.65;;;;;;;8.66;91.45;99973.06;5072156;28;20240;-80
2022/04/19 05:13:52;;;;;;;4.40;3.53;;;;;;;8.70;89.36;99979.16;5073370;28;20207;-80
2022/04/19 05:16:19;;;;;;;5.50;3.60;;;;;;;8.54;93.92;99956.41;5073164;28;20202;-79
2022/04/19 05:18:47;;;;;;;6.95;4.82;;;;;;;8.78;91.41;99946.56;5073698;28;20631;-79
2022/04/19 05:21:14;;;;;;;8.18;4.78;;;;;;;8.89;92.12;99987.31;5073708;28;20214;-84
2022/04/19 05:23:41;;;;;;;10.02;5.78;;;;;;;8.79;87.09;99987.09;5074138;28;20199;-80
2022/04/19 05:26:08;;;;;;;13.15;7.43;;;;;;;8.88;87.82;99992.47;5073279;28;20221;-77
2022/04/19 05:28:35;;;;;;;16.48;9.98;;;;;;;8.15;90.56;99900.44;5073348;28;20638;-76
2022/04/19 05:31:01;;;;;;;38.55;19.42;;;;;;;8.84;87.01;99994.13;5073356;28;20253;-79
2022/04/19 05:33:28;;;;;;;146.27;72.82;;;;;;;9.02;84.17;99993.59;5073094;28;20198;-79
2022/04/19 05:35:57;;;;;;;23.33;14.02;;;;;;;9.55;100.00;99983.38;5073331;28;20205;-81
2022/04/19 05:38:26;;;;;;;7.57;6.25;;;;;;;9.51;91.34;99999.69;5073716;28;20225;-78
2022/04/19 05:40:53;;;;;;;7.22;5.60;;;;;;;9.55;90.36;99996.31;5073580;28;20639;-79
2022/04/19 05:43:20;;;;;;;3.80;3.25;;;;;;;9.74;88.90;100006.13;5072952;28;20671;-78
2022/04/19 05:45:47;;;;;;;2.80;2.53;;;;;;;9.78;86.78;99985.50;5073326;28;20199;-80
2022/04/19 05:48:14;;;;;;;4.60;3.67;;;;;;;9.77;83.55;99957.00;5072906;28;20674;-77
2022/04/19 05:50:40;;;;;;;4.55;4.15;;;;;;;9.86;83.20;100007.22;5072944;28;20626;-78
2022/04/19 05:53:09;;;;;;;4.15;3.78;;;;;;;9.40;86.13;100009.84;5072796;28;20694;-77
2022/04/19 05:55:35;;;;;;;3.10;2.90;;;;;;;9.43;91.31;99992.66;5073221;28;20206;-78
2022/04/19 05:58:02;;;;;;;3.28;3.00;;;;;;;9.72;88.33;100010.41;5071198;28;20644;-78
2022/04/19 06:00:29;;;;;;;6.43;3.50;;;;;;;9.57;86.83;99992.00;5072287;28;20195;-78
2022/04/19 06:05:40;;;;;;;29.60;15.38;;;;;;;9.43;89.57;100021.13;5072576;28;20287;-77
2022/04/19 06:08:08;;;;;;;10.68;7.28;;;;;;;9.58;84.91;100022.25;5072176;28;20199;-78
2022/04/19 06:10:34;;;;;;;14.32;8.68;;;;;;;9.61;86.38;100010.22;5072294;28;20207;-77
2022/04/19 06:13:01;;;;;;;6.85;5.43;;;;;;;9.22;90.52;100004.31;5071812;28;20359;-78
2022/04/19 06:15:28;;;;;;;3.85;3.33;;;;;;;9.52;95.33;100028.19;5072416;28;20207;-78
2022/04/19 06:17:55;;;;;;;4.55;3.67;;;;;;;9.32;92.02;100026.94;5072013;28;20258;-77
2022/04/19 06:20:22;;;;;;;12.65;7.55;;;;;;;9.25;94.37;99997.50;5072106;28;20284;-77
2022/04/19 06:22:49;;;;;;;16.52;11.85;;;;;;;9.41;98.12;100020.22;5072293;28;20205;-78
2022/04/19 06:25:17;;;;;;;5.97;4.35;;;;;;;9.21;94.27;100029.31;5037091;28;20575;-77
2022/04/19 06:27:44;;;;;;;5.82;3.13;;;;;;;9.17;94.55;100024.91;5072387;28;20195;-77
2022/04/19 06:30:12;;;;;;;7.18;3.53;;;;;;;9.22;98.88;100032.78;5071967;28;20206;-78
2022/04/19 06:32:40;;;;;;;3.78;3.42;;;;;;;9.58;100.00;100032.59;5071914;28;20226;-78
2022/04/19 06:35:08;;;;;;;4.85;3.47;;;;;;;9.62;93.87;100036.97;5072767;28;20239;-77
2022/04/19 06:37:35;;;;;;;9.23;4.13;;;;;;;9.43;95.13;100038.34;5071810;28;20226;-79
2022/04/19 06:40:05;;;;;;;3.63;2.88;;;;;;;9.00;96.17;100035.78;5071673;28;20260;-77
2022/04/19 06:42:34;;;;;;;2.28;2.15;;;;;;;8.99;94.94;100026.28;5071753;28;20202;-78
2022/04/19 06:45:01;;;;;;;21.10;11.68;;;;;;;9.20;96.62;100045.69;5071462;28;20195;-79
2022/04/19 06:47:28;;;;;;;6.80;3.97;;;;;;;9.38;97.22;100043.44;5071629;28;20199;-79
2022/04/19 06:49:57;;;;;;;7.88;3.70;;;;;;;9.37;97.10;100044.31;5071683;28;20210;-79
2022/04/19 06:52:24;;;;;;;6.18;4.82;;;;;;;9.37;97.06;100015.84;5071076;28;20261;-79
2022/04/19 06:54:51;;;;;;;8.02;4.00;;;;;;;9.54;96.30;100033.38;5071537;28;20207;-77
2022/04/19 06:57:18;;;;;;;7.78;5.18;;;;;;;9.16;94.48;99999.91;5071234;28;20254;-78
2022/04/19 06:59:46;;;;;;;6.18;4.30;;;;;;;9.53;93.63;100049.75;5071672;28;20206;-78
2022/04/19 07:02:14;;;;;;;6.47;3.28;;;;;;;9.75;93.17;100049.28;5071442;28;20675;-79
2022/04/19 07:04:41;;;;;;;4.53;2.95;;;;;;;10.02;91.16;100049.78;5071020;28;20703;-77
2022/04/19 07:07:09;;;;;;;8.82;5.50;;;;;;;9.96;93.95;100028.94;5070995;28;20202;-78
2022/04/19 07:09:36;;;;;;;2.83;2.63;;;;;;;10.19;89.65;100048.38;5070506;28;20214;-78
2022/04/19 07:12:03;;;;;;;3.13;2.17;;;;;;;9.94;87.11;100043.59;5070947;28;20230;-76
2022/04/19 07:14:31;;;;;;;2.75;2.55;;;;;;;10.22;87.60;100051.00;5071099;28;20248;-78
2022/04/19 07:16:59;;;;;;;2.92;2.72;;;;;;;10.42;86.49;100031.44;5071202;28;20289;-78
2022/04/19 07:19:26;;;;;;;1.92;1.83;;;;;;;10.35;82.86;100047.75;5018985;28;20281;-80
2022/04/19 07:27:22;;;;;;;3.53;3.22;;;;;;;10.51;87.27;100035.88;5070995;28;20331;-78
2022/04/19 07:29:49;;;;;;;2.88;2.67;;;;;;;11.06;79.81;100054.78;5070991;28;20229;-77
2022/04/19 07:32:17;;;;;;;7.05;2.88;;;;;;;10.93;78.27;100048.56;5070536;28;20615;-78
2022/04/19 07:34:44;;;;;;;10.48;4.55;;;;;;;10.74;80.34;100042.25;5070709;28;20237;-78
2022/04/19 07:37:11;;;;;;;14.95;5.65;;;;;;;11.41;78.81;100048.28;5070326;28;20234;-78
2022/04/19 07:39:38;;;;;;;84.28;21.73;;;;;;;11.37;73.85;100047.38;5070779;28;20194;-78
2022/04/19 07:42:05;;;;;;;47.75;13.55;;;;;;;11.57;71.02;100018.16;5070899;28;20207;-79
2022/04/19 07:44:32;;;;;;;5.30;3.08;;;;;;;11.77;69.33;100047.84;5070579;28;20206;-78
2022/04/19 07:46:59;;;;;;;51.63;14.00;;;;;;;11.28;70.17;100049.84;5070557;28;20667;-78
2022/04/19 07:49:27;;;;;;;35.13;11.75;;;;;;;11.62;71.66;100048.50;5070282;28;20210;-79
2022/04/19 07:51:54;;;;;;;27.63;9.60;;;;;;;11.17;71.28;100043.66;5072496;28;20227;-80
2022/04/19 07:54:21;;;;;;;11.43;5.78;;;;;;;11.23;72.64;100037.69;5070457;28;20191;-79
2022/04/19 07:56:47;;;;;;;6.47;4.50;;;;;;;11.29;71.39;100043.81;5070443;28;20208;-78
2022/04/19 07:59:14;;;;;;;3.20;2.85;;;;;;;11.51;70.05;100033.66;5070182;28;20199;-79
2022/04/19 08:01:41;;;;;;;5.43;2.90;;;;;;;12.11;69.04;100043.78;5070379;28;20210;-78
2022/04/19 08:04:08;;;;;;;3.17;2.85;;;;;;;12.16;66.96;100031.72;5070450;28;20213;-79
2022/04/19 08:06:36;;;;;;;6.05;2.63;;;;;;;12.06;66.98;100037.66;5070508;28;20198;-78
2022/04/19 08:09:03;;;;;;;3.50;2.90;;;;;;;12.62;65.78;100019.88;5070416;28;20218;-78
2022/04/19 08:11:30;;;;;;;2.50;2.40;;;;;;;12.57;65.57;100037.19;5069920;28;20228;-79
2022/04/19 08:13:57;;;;;;;6.28;3.72;;;;;;;12.88;63.90;100041.69;5018035;28;20190;-78
2022/04/19 08:16:23;;;;;;;2.58;2.38;;;;;;;12.30;65.20;100037.88;5070288;28;20210;-79
2022/04/19 08:18:50;;;;;;;2.60;2.40;;;;;;;12.71;64.29;100027.72;5018589;28;20229;-80
2022/04/19 08:21:17;;;;;;;8.73;4.50;;;;;;;12.19;64.01;100035.19;5069514;28;20689;-78
2022/04/19 08:23:45;;;;;;;5.22;3.45;;;;;;;12.19;65.89;100029.13;5069995;28;20255;-78
2022/04/19 08:26:12;;;;;;;8.48;3.17;;;;;;;12.60;66.87;100026.78;5069765;28;20587;-77
2022/04/19 08:28:38;;;;;;;8.25;2.72;;;;;;;12.26;66.37;100030.91;5070192;28;20199;-78
2022/04/19 08:31:05;;;;;;;5.47;2.40;;;;;;;12.06;67.26;100024.69;5069634;28;20213;-79
2022/04/19 08:33:32;;;;;;;3.97;2.90;;;;;;;11.47;69.86;100027.56;5018544;28;20715;-78
2022/04/19 08:36:00;;;;;;;3.10;2.80;;;;;;;11.71;70.96;100009.66;5069935;28;20199;-79
2022/04/19 08:38:27;;;;;;;5.95;3.17;;;;;;;11.97;67.67;100020.28;5070072;28;20199;-77
2022/04/19 08:40:55;;;;;;;2.88;2.50;;;;;;;11.94;66.66;100009.88;5070086;28;20241;-78
2022/04/19 08:43:22;;;;;;;3.88;2.85;;;;;;;10.98;73.27;100020.97;5070110;28;20619;-77
2022/04/19 08:45:49;;;;;;;6.20;3.80;;;;;;;11.32;71.47;99991.94;5019425;28;20206;-78
2022/04/19 08:48:16;;;;;;;5.78;3.35;;;;;;;11.71;70.35;100012.25;5070408;28;20202;-78
2022/04/19 08:50:49;;;;;;;4.32;3.30;;;;;;;11.25;69.52;100010.03;5070949;28;20752;-76
2022/04/19 08:58:45;;;;;;;3.45;3.15;;;;;;;13.06;64.50;100023.56;5033157;28;20366;-79
2022/04/19 09:01:13;;;;;;;2.78;2.58;;;;;;;12.88;66.15;100023.47;5027783;28;20204;-78
2022/04/19 09:03:41;;;;;;;3.00;2.80;;;;;;;12.36;64.59;100020.59;5027296;28;20685;-79
2022/04/19 09:06:08;;;;;;;4.97;3.22;;;;;;;12.12;65.29;99981.44;5027483;28;20609;-78
2022/04/19 09:08:35;;;;;;;3.67;2.80;;;;;;;11.81;67.06;100014.09;5027099;28;20784;-77
2022/04/19 09:11:08;;;;;;;4.07;3.63;;;;;;;11.70;71.04;100025.22;5027235;28;20266;-77
2022/04/19 09:13:36;;;;;;;3.15;2.85;;;;;;;11.16;71.09;99990.06;5027316;28;20260;-78
2022/04/19 09:16:07;;;;;;;4.28;2.95;;;;;;;11.37;71.12;99994.59;5026932;28;20230;-78
2022/04/19 09:18:36;;;;;;;4.78;3.72;;;;;;;11.62;69.71;100009.56;5027152;28;20200;-77
2022/04/19 09:21:05;;;;;;;4.22;3.53;;;;;;;11.24;71.20;99985.78;5027557;28;20231;-78
2022/04/19 09:23:34;;;;;;;3.75;3.45;;;;;;;11.53;70.72;100018.97;5026993;28;20200;-79
2022/04/19 09:26:03;;;;;;;6.63;3.85;;;;;;;11.81;70.90;100013.22;5027159;28;20204;-78
2022/04/19 09:28:32;;;;;;;5.35;3.40;;;;;;;12.38;69.39;100013.66;5027399;28;20730;-78
2022/04/19 09:31:00;;;;;;;3.72;2.88;;;;;;;11.94;69.06;100015.06;5027055;28;20227;-78
2022/04/19 09:33:28;;;;;;;6.10;3.45;;;;;;;12.04;69.27;100011.69;5030390;28;20281;-79
2022/04/19 09:35:57;;;;;;;6.68;3.00;;;;;;;12.09;68.32;100017.81;5050703;28;20210;-78
2022/04/19 09:38:37;;;;;;;4.35;3.00;;;;;;;12.55;66.10;100012.91;5072731;28;20198;-78
2022/04/19 09:41:04;;;;;;;3.47;2.70;;;;;;;12.28;64.92;100021.38;5072668;28;20190;-80
2022/04/19 09:43:33;;;;;;;7.65;2.95;;;;;;;11.99;66.15;99991.69;5072747;28;20249;-77
2022/04/19 09:46:03;;;;;;;3.90;2.90;;;;;;;12.91;64.22;100005.31;5073000;28;20666;-78
2022/04/19 09:48:31;;;;;;;8.00;3.40;;;;;;;13.80;64.30;100025.53;5072635;28;20526;-80
2022/04/19 09:51:02;;;;;;;3.75;2.30;;;;;;;14.34;59.28;100011.63;5072679;28;20202;-77
2022/04/19 09:53:31;;;;;;;2.55;2.35;;;;;;;12.58;61.72;100020.72;5021704;28;20322;-77
2022/04/19 09:55:59;;;;;;;2.40;2.20;;;;;;;12.98;64.19;100027.88;5072475;28;20327;-78
2022/04/19 09:58:27;;;;;;;2.85;2.33;;;;;;;13.07;63.12;100029.63;5072686;28;20243;-77
2022/04/19 10:00:57;;;;;;;2.72;2.53;;;;;;;12.67;63.42;100026.84;5072561;28;20245;-78
2022/04/19 10:08:54;;;;;;;3.00;2.38;;;;;;;12.73;60.12;100015.63;5072470;28;20610;-78
2022/04/19 10:11:21;;;;;;;2.53;2.20;;;;;;;11.88;62.94;100018.47;5071873;28;20282;-77
2022/04/19 10:13:48;;;;;;;2.53;2.33;;;;;;;12.10;63.29;100011.72;5072301;28;20245;-77
2022/04/19 10:16:16;;;;;;;5.75;2.67;;;;;;;12.40;62.57;99966.88;5072108;28;20279;-80
2022/04/19 10:18:45;;;;;;;4.22;2.83;;;;;;;12.22;66.73;100011.81;5072118;28;20199;-77
2022/04/19 10:21:15;;;;;;;3.70;2.13;;;;;;;12.41;66.46;100018.88;5072456;28;20229;-78
2022/04/19 10:23:43;;;;;;;2.42;2.22;;;;;;;11.37;68.19;100016.25;5071998;28;20211;-77
2022/04/19 10:26:19;;;;;;;3.10;2.88;;;;;;;11.62;72.10;99985.31;5072235;28;20245;-76
2022/04/19 10:28:47;;;;;;;1.80;1.70;;;;;;;11.13;72.91;100015.94;5072419;28;20198;-77
2022/04/19 10:31:25;;;;;;;6.88;3.13;;;;;;;10.83;75.60;99971.50;5072035;28;20217;-77
2022/04/19 10:33:53;;;;;;;2.97;2.63;;;;;;;10.97;72.86;99977.72;5071434;28;20607;-77
2022/04/19 10:36:23;;;;;;;3.22;2.42;;;;;;;10.74;74.59;100007.66;5071716;28;20210;-77
2022/04/19 10:39:24;;;;;;;2.50;2.30;;;;;;;11.05;74.63;100011.53;5071830;28;20191;-77
2022/04/19 10:41:54;;;;;;;2.55;2.38;;;;;;;11.24;71.05;100014.34;5071601;28;20198;-77
2022/04/19 10:44:23;;;;;;;1.98;1.67;;;;;;;11.06;71.66;100008.09;5070959;28;20648;-76
2022/04/19 10:47:05;;;;;;;5.45;2.67;;;;;;;11.45;72.87;100004.19;5071808;28;20203;-76
2022/04/19 10:49:37;;;;;;;2.35;2.13;;;;;;;10.89;75.70;100002.69;5071702;28;20207;-78
2022/04/19 10:52:43;;;;;;;7.15;4.18;;;;;;;11.87;74.23;100003.75;5071593;28;20201;-77
2022/04/19 10:55:11;;;;;;;8.82;4.10;;;;;;;11.18;81.70;100009.09;5052766;28;20329;-78
2022/04/19 11:00:27;;;;;;;3.97;2.38;;;;;;;11.33;77.67;100008.38;5027401;28;20201;-77
2022/04/19 11:03:00;;;;;;;8.25;2.53;;;;;;;11.42;80.19;100008.47;5071172;28;20237;-78
2022/04/19 11:05:44;;;;;;;8.85;3.30;;;;;;;10.93;85.81;100007.06;5071651;28;20280;-77
2022/04/19 11:08:32;;;;;;;2.30;2.20;;;;;;;10.65;86.52;99994.59;5071576;28;20756;-78
2022/04/19 11:11:26;;;;;;;7.35;3.63;;;;;;;11.17;85.05;100007.34;5071219;28;20198;-78
2022/04/19 11:14:35;;;;;;;4.90;3.60;;;;;;;11.03;85.98;100008.91;5071649;28;20262;-78
2022/04/19 11:17:26;;;;;;;5.80;3.00;;;;;;;11.16;88.79;100010.81;5071472;28;20616;-79
2022/04/19 11:19:55;;;;;;;3.25;2.83;;;;;;;10.58;88.35;99995.38;5021947;28;20217;-79
2022/04/19 11:22:44;;;;;;;2.70;2.38;;;;;;;10.37;97.79;100002.00;5071550;28;20206;-79
2022/04/19 11:25:11;;;;;;;4.07;3.17;;;;;;;10.06;100.00;99976.44;5070608;28;20608;-79
2022/04/19 11:28:15;;;;;;;4.10;2.50;;;;;;;9.98;100.00;100011.72;5070829;28;20205;-79
2022/04/19 11:30:48;;;;;;;3.20;2.90;;;;;;;9.77;100.00;100012.25;5071014;28;20596;-79
2022/04/19 11:33:22;;;;;;;2.88;2.67;;;;;;;9.66;100.00;100000.84;5070716;28;20257;-79
2022/04/19 11:36:01;;;;;;;3.00;2.72;;;;;;;9.59;100.00;100000.69;5071217;28;20229;-81
2022/04/19 11:38:29;;;;;;;2.38;2.20;;;;;;;9.31;100.00;99982.06;5071210;28;20207;-80
2022/04/19 11:46:47;;;;;;;2.90;2.60;;;;;;;10.01;100.00;100005.72;5071144;28;20210;-77
2022/04/19 11:49:26;;;;;;;4.90;2.85;;;;;;;10.58;100.00;99997.97;5070989;28;20198;-79
2022/04/19 11:51:56;;;;;;;3.15;2.92;;;;;;;10.79;100.00;99990.47;5071217;28;20252;-80
2022/04/19 11:54:24;;;;;;;2.53;2.33;;;;;;;11.06;100.00;100001.16;5035536;28;20541;-80
2022/04/19 11:56:52;;;;;;;2.78;2.55;;;;;;;11.30;100.00;100000.56;5070978;28;20565;-78
2022/04/19 11:59:24;;;;;;;3.50;3.20;;;;;;;11.43;100.00;99992.94;5071158;28;20234;-81
2022/04/19 12:01:52;;;;;;;4.25;3.90;;;;;;;11.52;100.00;99971.38;5070975;28;20203;-80
2022/04/19 12:04:19;;;;;;;4.47;4.07;;;;;;;11.30;100.00;99983.28;5071250;28;20206;-80
2022/04/19 12:06:47;;;;;;;2.92;2.70;;;;;;;11.27;100.00;99988.41;5070908;28;20224;-78
2022/04/19 12:09:17;;;;;;;6.57;3.55;;;;;;;11.11;100.00;99986.53;5070651;28;20601;-81
2022/04/19 12:11:45;;;;;;;3.80;3.28;;;;;;;11.06;100.00;99982.16;5070703;28;20191;-79
2022/04/19 12:14:12;;;;;;;3.92;3.42;;;;;;;11.15;100.00;99983.13;5070788;28;20222;-79
2022/04/19 12:16:40;;;;;;;4.32;3.00;;;;;;;10.81;100.00;99986.16;5070730;28;20728;-80